Terminal Aerodrome Forecast
Issued by NWS

Home | Current Version | Previous Version | Graphics & Text | Print | Product List | Glossary On
Versions: 1 2 3 4 5 6 7 8 9 10 11 12 13 14 15 16 17 18 19
024
FTUS43 KGRB 261125
TAFAUW
TAF
KAUW 261125Z 2612/2712 29004KT P6SM SCT250
     FM261500 29006KT P6SM SCT050
     FM270200 VRB03KT P6SM BKN100
     FM271100 11004KT P6SM SHRA SCT035 OVC060=

USA.gov is the U.S. government's official web portal to all federal, state and local government web resources and services.